Flight Track Log - Related Links

Times and Time Zones

All times are in EDT time to prevent confusion due to time zone crossing. See the N487VC flight status page for this flight to view local times or setup timezone preferences in your user account.

Time Position Orientation Groundspeed Altitude Reporting Facility
EDT Latitude Longitude Course Direction KTS MPH feet Rate Location/Type
Thu 05:10:05 PM 41.0500 -73.7000 270° West 137 158 1,300  Level New York TRACON
Thu 05:11:05 PM 41.0500 -73.7500 270° West 188 216 3,000 1,750 Climbing New York TRACON
Thu 05:12:05 PM 41.0500 -73.8000 270° West 163 188 4,800 1,700 Climbing New York TRACON
Thu 05:13:05 PM 41.0333 -73.8333 236° Southwest 158 182 6,400 1,109 Climbing New York TRACON
Thu 05:14:04 PM 40.9833 -73.8333 180° South 184 212 7,000 300 Climbing New York TRACON
Thu 05:15:05 PM 40.9333 -73.8167 166° South 204 235 7,000 50 Level New York TRACON
Thu 05:16:04 PM 40.8667 -73.8000 169° South 209 241 7,100 706 Climbing New York TRACON
Thu 05:17:04 PM 40.8167 -73.8000 180° South 186 214 8,400 950 Climbing New York TRACON
Thu 05:18:04 PM 40.7667 -73.7833 166° South 200 230 9,000 298 Climbing New York TRACON
Thu 05:19:05 PM 40.7000 -73.7833 180° South 216 249 9,000  Level New York TRACON
Thu 05:20:05 PM 40.6500 -73.7667 166° South 203 234 9,000  Level New York TRACON
Thu 05:21:05 PM 40.5833 -73.8000 201° Southwest 200 230 9,000  Level New York TRACON
Thu 05:22:05 PM 40.5333 -73.8500 217° Southwest 218 251 9,000  Level New York TRACON
Thu 05:23:04 PM 40.4667 -73.8833 201° Southwest 223 257 9,000  Level New York TRACON
Thu 05:24:05 PM 40.4167 -73.9333 217° Southwest 221 254 9,000  Level New York TRACON
Thu 05:25:10 PM 40.3661 -73.9717 210° Southwest 225 259 9,000 48 Level New York Center
Thu 05:26:11 PM 40.3067 -74.0153 209° Southwest 216 249 9,100 694 Climbing New York Center
Thu 05:27:11 PM 40.2642 -74.0458 209° Southwest 206 237 10,400 942 Climbing New York Center
Thu 05:28:12 PM 40.2131 -74.0814 208° Southwest 199 229 11,000 303 Climbing New York Center
Thu 05:29:10 PM 40.1578 -74.1250 211° Southwest 214 246 11,000  Level New York Center
Thu 05:30:10 PM 40.1064 -74.1633 210° Southwest 231 266 11,000  Level New York Center
Thu 05:31:11 PM 40.0486 -74.2172 216° Southwest 237 273 11,000  Level New York Center
Thu 05:32:11 PM 39.9931 -74.2661 214° Southwest 242 278 11,000 545 Level New York Center
Thu 05:33:12 PM 39.9436 -74.3122 216° Southwest 233 268 12,100 1,311 Climbing New York Center
Thu 05:34:10 PM 39.9031 -74.3508 216° Southwest 206 237 13,600 1,301 Climbing New York Center
Thu 05:34:35 PM 39.8864 -74.3667 216° Southwest 193 222 13,900 776 Climbing Washington Center
Thu 05:35:35 PM 39.8472 -74.4025 215° Southwest 180 207 14,700 750 Climbing Washington Center
Thu 05:36:35 PM 39.8017 -74.4464 217° Southwest 186 214 15,400 600 Climbing Washington Center
Thu 05:37:35 PM 39.7542 -74.4903 215° Southwest 202 232 15,900 800 Climbing Washington Center
Thu 05:38:35 PM 39.7067 -74.5369 217° Southwest 209 241 17,000 950 Climbing Washington Center
Thu 05:39:35 PM 39.6572 -74.5808 214° Southwest 209 241 17,800 500 Climbing Washington Center
Thu 05:40:35 PM 39.6158 -74.6217 217° Southwest 209 241 18,000 100 Climbing Washington Center
Thu 05:41:35 PM 39.5642 -74.6736 218° Southwest 220 253 18,000  Level Washington Center
Thu 05:42:35 PM 39.5083 -74.7200 213° Southwest 231 266 18,000  Level Washington Center
Thu 05:43:35 PM 39.4544 -74.7744 218° Southwest 242 278 18,000  Level Washington Center
Thu 05:44:35 PM 39.3986 -74.8233 214° Southwest 247 284 18,000  Level Washington Center
Thu 05:45:35 PM 39.3447 -74.8778 218° Southwest 247 284 18,000  Level Washington Center
Thu 05:46:35 PM 39.2886 -74.9319 217° Southwest 247 284 18,000  Level Washington Center
Thu 05:47:35 PM 39.2328 -74.9753 211° Southwest 242 278 18,000  Level Washington Center
Thu 05:48:35 PM 39.1683 -75.0106 203° Southwest 242 278 18,000  Level Washington Center
Thu 05:49:35 PM 39.1058 -75.0458 204° Southwest 242 278 18,000  Level Washington Center
Thu 05:50:35 PM 39.0433 -75.0786 202° Southwest 242 278 18,000  Level Washington Center
Thu 05:51:35 PM 38.9831 -75.1164 206° Southwest 247 284 18,000  Level Washington Center
Thu 05:52:36 PM 38.9208 -75.1486 202° Southwest 247 284 18,000  Level Washington Center
Thu 05:53:35 PM 38.8583 -75.1864 205° Southwest 247 284 18,000  Level Washington Center
Thu 05:54:35 PM 38.7939 -75.2161 200° South 247 284 18,000  Level Washington Center
Thu 05:55:35 PM 38.7272 -75.2244 186° South 247 284 18,000  Level Washington Center
Thu 05:56:35 PM 38.6583 -75.2381 189° South 247 284 18,000  Level Washington Center
Thu 05:57:35 PM 38.5897 -75.2517 189° South 247 284 18,000  Level Washington Center
Thu 05:58:35 PM 38.5250 -75.2625 187° South 247 284 18,000  Level Washington Center
Thu 05:59:35 PM 38.4564 -75.2761 189° South 252 290 18,000  Level Washington Center
Thu 06:00:35 PM 38.3853 -75.2844 185° South 252 290 18,000  Level Washington Center
Thu 06:01:35 PM 38.3125 -75.2953 187° South 252 290 18,000  Level Washington Center
Thu 06:02:35 PM 38.2458 -75.3142 193° South 252 290 18,000  Level Washington Center
Thu 06:03:35 PM 38.1792 -75.3250 187° South 252 290 18,000  Level Washington Center
Thu 06:04:35 PM 38.1103 -75.3331 185° South 252 290 18,000  Level Washington Center
Thu 06:05:35 PM 38.0456 -75.3467 189° South 252 290 18,000  Level Washington Center
Thu 06:06:35 PM 37.9769 -75.3600 189° South 258 297 18,000  Level Washington Center
Thu 06:07:35 PM 37.9081 -75.3681 185° South 253 291 18,000  Level Washington Center
Thu 06:08:35 PM 37.8414 -75.3814 189° South 253 291 18,000  Level Washington Center
Thu 06:09:35 PM 37.7747 -75.3947 189° South 253 291 18,000  Level Washington Center
Thu 06:10:35 PM 37.7036 -75.4056 187° South 253 291 18,000  Level Washington Center
Thu 06:11:35 PM 37.6369 -75.4161 187° South 253 291 18,000  Level Washington Center
Thu 06:12:35 PM 37.5681 -75.4267 187° South 253 291 18,000  Level Washington Center
Thu 06:13:35 PM 37.4994 -75.4375 187° South 253 291 18,000  Level Washington Center
Thu 06:14:35 PM 37.4325 -75.4506 189° South 253 291 18,000  Level Washington Center
Thu 06:15:35 PM 37.3617 -75.4611 187° South 253 291 18,000  Level Washington Center
Thu 06:16:35 PM 37.2928 -75.4717 187° South 253 291 18,000  Level Washington Center
Thu 06:17:44 PM 37.2117 -75.4903 190° South 251 289 18,000  Level Washington Center
Thu 06:18:35 PM 37.1636 -75.4956 185° South 253 291 18,000  Level Washington Center
Thu 06:18:59 PM 37.1239 -75.4981 183° South 252 290 18,000 -100 Level Washington Center
Thu 06:19:35 PM 37.0928 -75.5086 195° South 253 291 17,900 -900 Descending Washington Center
Thu 06:19:59 PM 37.0550 -75.5111 183° South 251 289 17,100 -1,400 Descending Washington Center
Thu 06:20:35 PM 37.0217 -75.5192 191° South 253 291 16,500 -1,279 Descending Washington Center
Thu 06:21:00 PM 36.9822 -75.5242 186° South 266 306 15,800 -1,400 Descending Washington Center
Thu 06:21:35 PM 36.9467 -75.5294 187° South 253 291 15,100 -1,400 Descending Washington Center
Thu 06:22:00 PM 36.9092 -75.5347 186° South 270 311 14,400 -1,400 Descending Washington Center
Thu 06:22:35 PM 36.8758 -75.5425 191° South 258 297 13,700 -1,475 Descending Washington Center
Thu 06:23:01 PM 36.8297 -75.5478 185° South 267 307 12,900 -1,400 Descending Washington Center
Thu 06:23:35 PM 36.8006 -75.5556 192° South 264 304 12,300 -1,377 Descending Washington Center
Thu 06:24:02 PM 36.7569 -75.5633 188° South 266 306 11,500 -1,400 Descending Washington Center
Thu 06:24:35 PM 36.7214 -75.5686 187° South 269 310 10,900 -1,032 Descending Washington Center
Thu 06:25:35 PM 36.6547 -75.5789 187° South 269 310 9,900 -1,150 Descending Washington Center
Thu 06:26:35 PM 36.5858 -75.5894 187° South 269 310 8,600 -1,350 Descending Washington Center
Thu 06:27:35 PM 36.5169 -75.5997 187° South 264 304 7,200 -1,400 Descending Washington Center
Thu 06:28:35 PM 36.4503 -75.6128 189° South 253 291 5,800 -1,450 Descending Washington Center
Thu 06:29:35 PM 36.3833 -75.6231 187° South 247 284 4,300 -900 Descending Washington Center
Thu 06:30:35 PM 36.3208 -75.6306 186° South 240 276 4,000 -600 Descending Washington Center
Thu 06:31:35 PM 36.2583 -75.6408 188° South 233 268 3,100 -500 Descending Washington Center
Thu 06:32:35 PM 36.1997 -75.6511 188° South 228 262 3,000 -50 Descending Washington Center
Thu 06:33:35 PM 36.1414 -75.6614 188° South 221 254 3,000  Level Washington Center
Thu 06:34:35 PM 36.0831 -75.6692 186° South 216 249 3,000 -50 Level Washington Center
Thu 06:35:35 PM 36.0244 -75.6794 188° South 216 249 2,900 -450 Descending Washington Center
Thu 06:36:35 PM 35.9808 -75.6561 157° South 202 232 2,100 -650 Descending Washington Center
Thu 06:37:35 PM 35.9328 -75.6433 168° South 165 190 1,600 450 Descending Washington Center
Thu 06:38:35 PM 35.8869 -75.6306 167° South 165 190 3,000 700 Climbing Washington Center
Thu 06:39:35 PM 35.8389 -75.6178 168° South 165 190 3,000  Level Washington Center
Thu 06:40:35 PM 35.9494 -75.7128 325° Northwest 165 190 3,000  Level Washington Center
Thu 06:41:35 PM 35.9139 -75.7203 190° South 165 190 3,000  Level Washington Center
Thu 06:42:35 PM 35.8408 -75.7331 188° South 165 190 3,000  Level Washington Center
Thu 06:43:35 PM 35.9472 -75.7153 North 165 190 3,000  Level Washington Center
Thu 06:44:35 PM 35.9328 -75.7178 188° South 165 190 3,000  Level Washington Center
Thu 06:45:35 PM 35.8597 -75.7306 188° South 165 190 3,000  Level Washington Center
Thu 06:46:35 PM 35.8011 -75.7406 188° South 165 190 3,000  Level Washington Center
Thu 06:47:36 PM 35.9389 -75.7153 North 165 190 3,000  Level Washington Center
Thu 06:48:35 PM 35.9328 -75.7153 180° South 165 190 3,000  Level Washington Center
Thu 06:49:35 PM 35.8597 -75.7278 188° South 165 190 3,000  Level Washington Center
Thu 06:50:35 PM 35.8011 -75.7381 188° South 165 190 3,000  Level Washington Center
Thu 06:51:35 PM 35.8011 -75.7381 73° East 165 190 3,000  Level Washington Center
Thu 06:52:35 PM 35.9619 -75.6997 11° North 165 190 3,000  Level Washington Center
Thu 06:53:35 PM 35.9244 -75.7075 190° South 165 190 3,000  Level Washington Center
Thu 06:54:35 PM 35.8514 -75.7203 188° South 165 190 3,000  Level Washington Center
Thu 06:55:35 PM 35.8219 -75.7253 188° South 165 190 3,000  Level Washington Center
Thu 06:57:35 PM 35.8219 -75.7253 22° Northeast 165 190 3,000  Level Washington Center
Thu 06:59:35 PM 35.8219 -75.7253 22° Northeast 165 190 3,000  Level Washington Center
Thu 07:01:35 PM 35.8219 -75.7253 22° Northeast 165 190 3,000  Level Washington Center
Thu 07:03:35 PM 35.8219 -75.7253 22° Northeast 165 190 3,000  Level Washington Center

Login

Don't have an account? Register now (free) for customized features, flight alerts, and more!